Time;durP1;ratioP1;P1;durP2;ratioP2;P2;SDS_P1;SDS_P2;PMS_P1;PMS_P2;Temp;Humidity;BMP_temperature;BMP_pressure;BME280_temperature;BME280_humidity;BME280_pressure;Samples;Min_cycle;Max_cycle;Signal;HPM_P1;HPM_P2
2023/01/27 00:01:18;;;;;;;3.00;1.20;;;4.00;99.90;;;;;;5036194;28;20444;-73
2023/01/27 00:03:44;;;;;;;9.30;1.52;;;4.00;99.90;;;;;;5036256;28;20026;-73
2023/01/27 00:06:10;;;;;;;7.82;1.20;;;4.00;99.90;;;;;;5036234;28;20017;-73
2023/01/27 00:08:36;;;;;;;2.45;1.77;;;4.00;99.90;;;;;;5036035;28;20105;-73
2023/01/27 00:13:46;;;;;;;6.47;1.70;;;4.00;99.90;;;;;;5036539;28;20036;-73
2023/01/27 00:16:11;;;;;;;11.93;1.73;;;4.00;99.90;;;;;;5036143;28;20022;-73
2023/01/27 00:18:37;;;;;;;4.07;1.45;;;4.00;99.90;;;;;;5036093;28;20038;-73
2023/01/27 00:26:41;;;;;;;4.82;1.25;;;3.90;99.90;;;;;;5035524;28;20494;-73
2023/01/27 00:29:07;;;;;;;4.35;1.48;;;3.90;99.90;;;;;;5036187;28;20037;-73
2023/01/27 00:34:16;;;;;;;7.53;1.65;;;3.90;99.90;;;;;;5035770;28;20224;-73
2023/01/27 00:36:42;;;;;;;9.70;1.95;;;3.90;99.90;;;;;;5035642;28;20132;-73
2023/01/27 00:39:09;;;;;;;4.55;1.55;;;3.90;99.90;;;;;;5035525;28;20499;-73
2023/01/27 00:41:35;;;;;;;9.75;1.70;;;3.90;99.90;;;;;;5035380;28;20032;-73
2023/01/27 00:44:01;;;;;;;6.78;1.83;;;3.90;99.90;;;;;;5035588;28;20104;-73
2023/01/27 00:46:27;;;;;;;10.30;2.20;;;3.90;99.90;;;;;;5035183;28;20014;-72
2023/01/27 00:48:52;;;;;;;13.68;1.90;;;3.80;99.90;;;;;;5035542;28;20027;-73
2023/01/27 00:51:19;;;;;;;5.55;1.35;;;3.90;99.90;;;;;;5035467;28;20025;-73
2023/01/27 00:53:45;;;;;;;9.60;1.80;;;3.90;99.90;;;;;;5035381;28;20047;-73
2023/01/27 00:56:11;;;;;;;8.90;1.52;;;3.90;99.90;;;;;;5035417;28;20108;-73
2023/01/27 00:58:37;;;;;;;4.50;1.25;;;3.90;99.90;;;;;;5035339;28;20065;-73
2023/01/27 01:01:05;;;;;;;7.30;1.70;;;3.90;99.90;;;;;;5035170;28;20040;-73
2023/01/27 01:03:32;;;;;;;7.10;1.75;;;3.80;99.90;;;;;;5035362;28;20030;-73
2023/01/27 01:05:59;;;;;;;3.00;1.70;;;3.70;99.90;;;;;;5035579;28;20022;-73
2023/01/27 01:08:25;;;;;;;8.68;1.83;;;3.70;99.90;;;;;;5035025;28;20028;-73
2023/01/27 01:10:51;;;;;;;10.13;2.63;;;3.70;99.90;;;;;;5034900;28;20108;-73
2023/01/27 01:13:18;;;;;;;5.35;1.33;;;3.70;99.90;;;;;;5035412;28;20481;-73
2023/01/27 01:15:43;;;;;;;9.68;2.03;;;3.70;99.90;;;;;;5034815;28;20024;-73
2023/01/27 01:18:10;;;;;;;7.00;1.73;;;3.80;99.90;;;;;;5034952;28;20391;-73
2023/01/27 01:20:43;;;;;;;4.50;2.00;;;3.70;99.90;;;;;;5034802;28;20029;-73
2023/01/27 01:23:09;;;;;;;7.20;1.40;;;3.70;99.90;;;;;;5034891;28;20053;-73
2023/01/27 01:25:35;;;;;;;8.73;1.95;;;3.70;99.90;;;;;;5034985;28;20411;-73
2023/01/27 01:28:02;;;;;;;10.98;1.63;;;3.70;99.90;;;;;;5034647;28;20037;-73
2023/01/27 01:30:28;;;;;;;6.65;1.50;;;3.70;99.90;;;;;;5034614;28;20036;-73
2023/01/27 01:32:54;;;;;;;8.98;1.58;;;3.80;99.90;;;;;;5034149;28;20036;-73
2023/01/27 01:35:21;;;;;;;13.25;1.65;;;3.70;99.90;;;;;;5034626;28;20025;-73
2023/01/27 01:37:47;;;;;;;6.45;1.55;;;3.70;99.90;;;;;;5034570;28;20177;-73
2023/01/27 01:40:13;;;;;;;8.07;1.33;;;3.70;99.90;;;;;;5034413;28;20040;-73
2023/01/27 01:43:10;;;;;;;4.50;1.40;;;3.70;99.90;;;;;;5034315;28;20017;-73
2023/01/27 01:45:38;;;;;;;6.45;1.33;;;3.60;99.90;;;;;;5032351;28;20045;-73
2023/01/27 01:48:12;;;;;;;10.75;1.33;;;3.50;99.90;;;;;;5014571;28;20018;-73
2023/01/27 01:50:41;;;;;;;7.07;1.40;;;3.40;99.90;;;;;;5014394;28;20049;-73
2023/01/27 01:53:08;;;;;;;4.63;1.30;;;3.30;99.90;;;;;;5014273;28;20025;-73
2023/01/27 01:55:36;;;;;;;8.30;2.88;;;3.20;99.90;;;;;;5014856;28;20477;-73
2023/01/27 01:58:03;;;;;;;3.05;1.00;;;3.10;99.90;;;;;;5032211;28;20022;-73
2023/01/27 02:00:29;;;;;;;7.10;1.25;;;3.00;99.90;;;;;;5034650;28;20084;-73
2023/01/27 02:02:55;;;;;;;5.40;1.15;;;3.00;99.90;;;;;;5034749;28;20541;-73
2023/01/27 02:05:28;;;;;;;3.58;1.10;;;3.00;99.90;;;;;;5034269;28;20021;-73
2023/01/27 02:08:28;;;;;;;3.13;1.10;;;3.00;99.90;;;;;;5034141;28;20030;-73
2023/01/27 02:10:53;;;;;;;5.80;1.45;;;2.90;99.90;;;;;;5033938;28;20034;-73
2023/01/27 02:13:20;;;;;;;8.30;1.65;;;2.80;99.90;;;;;;5033620;28;20029;-73
2023/01/27 02:15:46;;;;;;;4.68;0.98;;;2.80;99.90;;;;;;5016124;28;20026;-74
2023/01/27 02:18:13;;;;;;;2.58;1.40;;;2.80;99.90;;;;;;5033873;28;20033;-73
2023/01/27 02:20:43;;;;;;;14.63;2.03;;;2.80;99.90;;;;;;5034002;28;20066;-73
2023/01/27 02:23:20;;;;;;;13.02;1.60;;;2.90;99.90;;;;;;5033719;28;20119;-73
2023/01/27 02:26:04;;;;;;;2.45;1.23;;;2.90;99.90;;;;;;5034162;28;20017;-73
2023/01/27 02:28:31;;;;;;;7.45;1.10;;;2.90;99.90;;;;;;5033354;28;20025;-72
2023/01/27 02:30:56;;;;;;;2.53;0.93;;;2.90;99.90;;;;;;5016181;28;20032;-73
2023/01/27 02:33:22;;;;;;;3.40;1.02;;;2.90;99.90;;;;;;5033713;28;20112;-73
2023/01/27 02:36:09;;;;;;;2.78;0.98;;;2.80;99.90;;;;;;5033811;28;20036;-73
2023/01/27 02:38:42;;;;;;;5.78;1.20;;;2.70;99.90;;;;;;5033277;28;20033;-73
2023/01/27 02:41:35;;;;;;;4.73;1.07;;;2.50;99.90;;;;;;5033332;28;20029;-73
2023/01/27 02:44:01;;;;;;;5.80;1.00;;;2.40;99.90;;;;;;5023832;28;20120;-73
2023/01/27 02:46:27;;;;;;;2.60;0.90;;;2.40;99.90;;;;;;5033110;28;20107;-73
2023/01/27 02:48:52;;;;;;;1.50;0.93;;;2.40;99.90;;;;;;5033190;28;20472;-73
2023/01/27 02:51:18;;;;;;;6.53;1.33;;;2.50;99.90;;;;;;5033352;28;20459;-73
2023/01/27 02:53:44;;;;;;;8.05;2.38;;;2.50;99.90;;;;;;5033263;28;20482;-73
2023/01/27 02:56:10;;;;;;;4.80;1.13;;;2.60;99.90;;;;;;5032785;28;20057;-73
2023/01/27 02:58:35;;;;;;;1.98;0.98;;;2.60;99.90;;;;;;5032858;28;20483;-74
2023/01/27 03:01:01;;;;;;;6.90;1.33;;;2.50;99.90;;;;;;5033070;28;20383;-73
2023/01/27 03:03:26;;;;;;;4.40;1.23;;;2.60;99.90;;;;;;5033187;28;20026;-73
2023/01/27 03:05:52;;;;;;;1.83;1.00;;;2.70;99.90;;;;;;5033209;28;20021;-73
2023/01/27 03:08:17;;;;;;;7.43;1.55;;;2.70;99.90;;;;;;5033127;28;20106;-73
2023/01/27 03:10:44;;;;;;;6.72;1.25;;;2.70;99.90;;;;;;5033101;28;20108;-73
2023/01/27 03:13:10;;;;;;;9.77;1.20;;;2.80;99.90;;;;;;5033148;28;20105;-73
2023/01/27 03:18:21;;;;;;;1.60;1.17;;;2.60;99.90;;;;;;5033001;28;20117;-73
2023/01/27 03:20:48;;;;;;;8.77;1.27;;;2.50;99.90;;;;;;5033057;28;20032;-73
2023/01/27 03:23:15;;;;;;;4.13;1.27;;;2.40;99.90;;;;;;5033122;28;20053;-73
2023/01/27 03:25:46;;;;;;;4.10;1.60;;;2.40;99.90;;;;;;5033125;28;20026;-73
2023/01/27 03:28:13;;;;;;;6.18;1.45;;;2.50;99.90;;;;;;5032594;28;20502;-73
2023/01/27 03:30:40;;;;;;;2.97;1.10;;;2.50;99.90;;;;;;5033264;28;20545;-73
2023/01/27 03:33:06;;;;;;;5.28;1.58;;;2.50;99.90;;;;;;5033033;28;20034;-73
2023/01/27 03:35:37;;;;;;;7.25;1.27;;;2.40;99.90;;;;;;5032982;28;20111;-73
2023/01/27 03:46:21;;;;;;;3.55;1.30;;;2.30;99.90;;;;;;5033376;28;20047;-73
2023/01/27 03:48:49;;;;;;;4.57;1.80;;;2.30;99.90;;;;;;5032873;28;20433;-73
2023/01/27 03:51:15;;;;;;;3.38;1.27;;;2.30;99.90;;;;;;5032781;28;20391;-73
2023/01/27 03:53:40;;;;;;;5.40;1.60;;;2.40;99.90;;;;;;5033097;28;20434;-73
2023/01/27 03:56:06;;;;;;;9.10;1.55;;;2.40;99.90;;;;;;5032633;28;20026;-73
2023/01/27 03:58:34;;;;;;;6.53;1.40;;;2.40;99.90;;;;;;5032420;28;20486;-73
2023/01/27 04:01:02;;;;;;;6.80;1.58;;;2.40;99.90;;;;;;5032912;28;20487;-73
2023/01/27 04:09:12;;;;;;;3.55;1.63;;;2.70;99.90;;;;;;5035596;28;20446;-73
2023/01/27 04:14:27;;;;;;;12.70;2.15;;;2.60;99.90;;;;;;5036065;28;20120;-73
2023/01/27 04:16:55;;;;;;;6.22;1.45;;;2.60;99.90;;;;;;5036154;28;20037;-73
2023/01/27 04:19:21;;;;;;;9.07;1.70;;;2.50;99.90;;;;;;5036007;28;20060;-74
2023/01/27 04:21:47;;;;;;;10.40;1.60;;;2.60;99.90;;;;;;5035996;28;20049;-73
2023/01/27 04:24:21;;;;;;;7.00;1.77;;;2.60;99.90;;;;;;5036029;28;20026;-73
2023/01/27 04:26:48;;;;;;;5.45;1.98;;;2.60;99.90;;;;;;5036364;28;20053;-73
2023/01/27 04:29:13;;;;;;;3.88;2.00;;;2.60;99.90;;;;;;5036538;28;20029;-73
2023/01/27 04:31:39;;;;;;;5.13;1.65;;;2.70;99.90;;;;;;5036033;28;20508;-73
2023/01/27 04:34:05;;;;;;;4.13;1.67;;;2.70;99.90;;;;;;5035737;28;20383;-73
2023/01/27 04:36:31;;;;;;;3.53;1.80;;;2.70;99.90;;;;;;5035796;28;20020;-73
2023/01/27 04:38:57;;;;;;;6.15;1.85;;;2.70;99.90;;;;;;5035523;28;20482;-73
2023/01/27 04:41:22;;;;;;;5.70;1.83;;;2.70;99.90;;;;;;5035207;28;20038;-73
2023/01/27 04:43:48;;;;;;;7.63;1.70;;;2.70;99.90;;;;;;5035621;28;20025;-73
2023/01/27 04:46:13;;;;;;;6.00;2.10;;;2.80;99.90;;;;;;5035634;28;20029;-73
2023/01/27 04:48:39;;;;;;;5.65;2.08;;;2.80;99.90;;;;;;5035070;28;20032;-72
2023/01/27 04:51:04;;;;;;;4.45;1.67;;;2.80;99.90;;;;;;5035327;28;20048;-73
2023/01/27 04:53:30;;;;;;;10.68;2.30;;;2.80;99.90;;;;;;5035001;28;20469;-73
2023/01/27 04:56:02;;;;;;;6.93;1.90;;;2.80;99.90;;;;;;5035696;28;20034;-73
2023/01/27 04:58:28;;;;;;;2.83;1.60;;;2.90;99.90;;;;;;5035071;28;20109;-73
2023/01/27 05:00:54;;;;;;;5.57;1.70;;;2.90;99.90;;;;;;5035200;28;20542;-73
2023/01/27 05:03:19;;;;;;;2.55;1.55;;;2.90;99.90;;;;;;5034913;28;20024;-73
2023/01/27 05:05:45;;;;;;;3.47;1.27;;;3.00;99.90;;;;;;5035002;28;20025;-73
2023/01/27 05:08:10;;;;;;;4.95;1.40;;;2.90;99.90;;;;;;5034881;28;20030;-73
2023/01/27 05:10:36;;;;;;;9.35;1.92;;;2.90;99.90;;;;;;5034756;28;20045;-73
2023/01/27 05:13:02;;;;;;;2.83;1.20;;;2.90;99.90;;;;;;5035105;28;20030;-73
2023/01/27 05:15:28;;;;;;;3.60;1.23;;;2.90;99.90;;;;;;5034645;28;20052;-73
2023/01/27 05:17:54;;;;;;;4.25;1.50;;;2.90;99.90;;;;;;5034584;28;20021;-73
2023/01/27 05:20:20;;;;;;;3.35;1.60;;;2.90;99.90;;;;;;5033586;28;20033;-73
2023/01/27 05:22:46;;;;;;;4.35;1.55;;;2.90;99.90;;;;;;5034856;28;20106;-73
2023/01/27 05:25:11;;;;;;;2.30;1.40;;;2.90;99.90;;;;;;5034811;28;20057;-73
2023/01/27 05:27:37;;;;;;;6.65;1.40;;;3.00;99.90;;;;;;5034592;28;20095;-73
2023/01/27 05:30:03;;;;;;;2.45;1.98;;;2.90;99.90;;;;;;5034276;28;20034;-73
2023/01/27 05:32:28;;;;;;;3.00;1.63;;;2.90;99.90;;;;;;5034841;28;20079;-73
2023/01/27 05:34:54;;;;;;;2.38;1.70;;;2.90;99.90;;;;;;5034468;28;20029;-72
2023/01/27 05:37:19;;;;;;;3.35;1.40;;;3.00;99.90;;;;;;5034500;28;20029;-73
2023/01/27 05:39:45;;;;;;;6.45;1.30;;;3.00;99.90;;;;;;5034452;28;20032;-73
2023/01/27 05:42:10;;;;;;;2.72;1.35;;;2.90;99.90;;;;;;5034130;28;20032;-73
2023/01/27 05:44:36;;;;;;;3.70;1.58;;;2.90;99.90;;;;;;5034509;28;20018;-73
2023/01/27 05:47:01;;;;;;;4.15;1.60;;;2.90;99.90;;;;;;5034048;28;20394;-73
2023/01/27 05:49:27;;;;;;;2.58;1.42;;;2.90;99.90;;;;;;5034531;28;20419;-73
2023/01/27 05:51:52;;;;;;;2.03;1.70;;;2.90;99.90;;;;;;5034033;28;20029;-72
2023/01/27 05:54:18;;;;;;;3.60;1.25;;;2.90;99.90;;;;;;5034391;28;20030;-73
2023/01/27 05:56:43;;;;;;;1.63;1.52;;;2.90;99.90;;;;;;5033933;28;20017;-73
2023/01/27 05:59:10;;;;;;;3.97;1.88;;;2.90;99.90;;;;;;5033885;28;20097;-73
2023/01/27 06:01:36;;;;;;;4.03;1.58;;;2.90;99.90;;;;;;5034079;28;20072;-73
2023/01/27 06:04:02;;;;;;;2.28;1.30;;;2.90;99.90;;;;;;5033732;28;20022;-73
2023/01/27 06:06:31;;;;;;;2.00;1.65;;;2.90;99.90;;;;;;5033658;28;20013;-73
2023/01/27 06:08:56;;;;;;;2.55;1.75;;;2.90;99.90;;;;;;5033950;28;20387;-73
2023/01/27 06:11:23;;;;;;;4.60;2.00;;;3.00;99.90;;;;;;5033649;28;20025;-73
2023/01/27 06:13:50;;;;;;;2.67;2.13;;;2.90;99.90;;;;;;5033733;28;20024;-73
2023/01/27 06:16:17;;;;;;;3.13;1.35;;;2.90;99.90;;;;;;5033600;28;20034;-73
2023/01/27 06:18:43;;;;;;;1.85;1.27;;;2.90;99.90;;;;;;5015971;28;20112;-73
2023/01/27 06:21:10;;;;;;;3.13;1.58;;;2.90;99.90;;;;;;5033626;28;20121;-73
2023/01/27 06:23:37;;;;;;;3.25;1.65;;;2.90;99.90;;;;;;5033644;28;20048;-73
2023/01/27 06:26:08;;;;;;;5.68;1.88;;;2.90;99.90;;;;;;5033419;28;20040;-73
2023/01/27 06:28:35;;;;;;;2.95;1.80;;;2.90;99.90;;;;;;5033606;28;20051;-73
2023/01/27 06:31:20;;;;;;;2.63;1.20;;;2.90;99.90;;;;;;5033410;28;20034;-72
2023/01/27 06:33:46;;;;;;;8.13;2.05;;;2.90;99.90;;;;;;5033626;28;20025;-73
2023/01/27 06:36:14;;;;;;;1.70;1.52;;;2.90;99.90;;;;;;5033099;28;20108;-73
2023/01/27 06:38:40;;;;;;;2.22;1.58;;;2.90;99.90;;;;;;5015623;28;20496;-73
2023/01/27 06:41:06;;;;;;;3.75;1.90;;;2.90;99.90;;;;;;5032929;28;20037;-73
2023/01/27 06:43:32;;;;;;;6.75;1.88;;;2.80;99.90;;;;;;5033355;28;20033;-73
2023/01/27 06:45:58;;;;;;;4.05;1.85;;;2.90;99.90;;;;;;5033930;28;20025;-73
2023/01/27 06:48:24;;;;;;;4.78;1.30;;;2.90;99.90;;;;;;5033274;28;20503;-73
2023/01/27 06:50:52;;;;;;;3.38;1.80;;;2.90;99.90;;;;;;5033701;28;20022;-73
2023/01/27 06:53:17;;;;;;;3.92;1.73;;;2.90;99.90;;;;;;5034014;28;20032;-73
2023/01/27 06:55:43;;;;;;;4.57;1.92;;;2.90;99.90;;;;;;5033710;28;20029;-73
2023/01/27 06:58:11;;;;;;;1.80;1.40;;;2.90;99.90;;;;;;5033042;28;20021;-73
2023/01/27 07:00:38;;;;;;;3.22;1.63;;;2.80;99.90;;;;;;5032619;28;20120;-73
2023/01/27 07:03:04;;;;;;;3.67;1.92;;;2.90;99.90;;;;;;5015469;28;20383;-73
2023/01/27 07:05:31;;;;;;;8.63;1.83;;;2.90;99.90;;;;;;5032822;28;20025;-73
2023/01/27 07:07:56;;;;;;;2.72;1.27;;;2.90;99.90;;;;;;5033234;28;20072;-73
2023/01/27 07:10:22;;;;;;;2.13;1.70;;;2.90;99.90;;;;;;5032698;28;20586;-73
2023/01/27 07:12:47;;;;;;;6.63;1.73;;;2.80;99.90;;;;;;5033147;28;20022;-73
2023/01/27 07:15:13;;;;;;;2.80;1.40;;;2.80;99.90;;;;;;5032758;28;20376;-73
2023/01/27 07:17:39;;;;;;;2.35;1.38;;;2.80;99.90;;;;;;5032716;28;20399;-73
2023/01/27 07:20:06;;;;;;;5.00;1.67;;;2.90;99.90;;;;;;5033494;28;20099;-73
2023/01/27 07:22:32;;;;;;;2.50;1.40;;;2.90;99.90;;;;;;5032801;28;20101;-73
2023/01/27 07:24:58;;;;;;;5.57;1.33;;;2.90;99.90;;;;;;5032775;28;20097;-74
2023/01/27 07:27:24;;;;;;;2.65;1.40;;;2.90;99.90;;;;;;5032759;28;20053;-73
2023/01/27 07:29:50;;;;;;;4.97;1.50;;;2.90;99.90;;;;;;5032973;28;20033;-74
2023/01/27 07:32:16;;;;;;;1.48;1.30;;;2.90;99.90;;;;;;5032680;28;20514;-73
2023/01/27 07:34:41;;;;;;;7.75;1.52;;;2.90;99.90;;;;;;5033075;28;20033;-72
2023/01/27 07:37:07;;;;;;;3.60;1.15;;;2.90;99.90;;;;;;5032845;28;20030;-72
2023/01/27 07:39:33;;;;;;;2.47;1.17;;;2.90;99.90;;;;;;5032564;28;20029;-72
2023/01/27 07:42:02;;;;;;;3.17;0.93;;;2.90;99.90;;;;;;5032425;28;20025;-72
2023/01/27 07:44:27;;;;;;;7.10;1.17;;;2.90;99.90;;;;;;5035919;28;20037;-72
2023/01/27 07:46:53;;;;;;;1.00;0.90;;;2.90;99.90;;;;;;5036075;28;20034;-73
2023/01/27 07:49:19;;;;;;;3.30;1.20;;;2.90;99.90;;;;;;5036451;28;20134;-73
2023/01/27 07:51:44;;;;;;;2.35;1.30;;;2.90;99.90;;;;;;5035672;28;20025;-73
2023/01/27 07:54:10;;;;;;;4.18;1.38;;;2.90;99.90;;;;;;5056322;28;20027;-73
2023/01/27 07:56:36;;;;;;;4.10;1.50;;;2.90;99.90;;;;;;5045029;28;20377;-73
2023/01/27 07:59:02;;;;;;;4.97;1.02;;;2.90;99.90;;;;;;5036285;28;20033;-73
2023/01/27 08:01:28;;;;;;;1.70;1.08;;;2.90;99.90;;;;;;5036073;28;20467;-73
2023/01/27 08:03:53;;;;;;;2.33;1.40;;;2.90;99.90;;;;;;5036026;28;20028;-73
2023/01/27 08:06:19;;;;;;;1.23;1.10;;;2.90;99.90;;;;;;5035997;28;20025;-73
2023/01/27 08:08:44;;;;;;;3.25;1.52;;;3.00;99.90;;;;;;5036931;28;20021;-73
2023/01/27 08:11:12;;;;;;;1.85;1.20;;;2.90;99.90;;;;;;5035746;28;20083;-73
2023/01/27 08:13:38;;;;;;;3.15;1.70;;;3.00;99.90;;;;;;5035805;28;20116;-73
2023/01/27 08:16:07;;;;;;;2.65;1.42;;;3.00;99.90;;;;;;5035785;28;20064;-73
2023/01/27 08:18:32;;;;;;;3.45;1.50;;;3.00;99.90;;;;;;5035676;28;20029;-73
2023/01/27 08:20:59;;;;;;;2.63;1.77;;;3.00;99.90;;;;;;5035864;28;20022;-73
2023/01/27 08:23:25;;;;;;;4.10;1.23;;;3.00;99.90;;;;;;5035540;28;20032;-73
2023/01/27 08:25:52;;;;;;;2.25;1.50;;;3.10;99.90;;;;;;5035736;28;20472;-72
2023/01/27 08:28:18;;;;;;;3.90;1.60;;;3.10;99.90;;;;;;5035652;28;20033;-73
2023/01/27 08:30:45;;;;;;;1.88;1.15;;;3.10;99.90;;;;;;5035391;28;20060;-73
2023/01/27 08:33:11;;;;;;;3.42;1.42;;;3.10;99.90;;;;;;5035591;28;20025;-72
2023/01/27 08:35:38;;;;;;;4.70;1.40;;;3.20;99.90;;;;;;5017732;28;20022;-72
2023/01/27 08:38:04;;;;;;;4.13;1.33;;;3.10;99.90;;;;;;5035580;28;20152;-72
2023/01/27 08:40:30;;;;;;;6.60;1.90;;;3.20;99.90;;;;;;5035321;28;20071;-72
2023/01/27 08:42:55;;;;;;;6.00;1.95;;;3.10;99.90;;;;;;5035658;28;20037;-72
2023/01/27 08:45:21;;;;;;;4.90;1.27;;;3.20;99.90;;;;;;5035196;28;20033;-73
2023/01/27 08:47:46;;;;;;;4.65;1.45;;;3.20;99.90;;;;;;5035644;28;20026;-72
2023/01/27 08:50:12;;;;;;;6.82;1.77;;;3.20;99.90;;;;;;5035391;28;20083;-72
2023/01/27 08:52:38;;;;;;;2.53;1.00;;;3.20;99.90;;;;;;5035440;28;20029;-72
2023/01/27 08:55:03;;;;;;;1.50;1.02;;;3.20;99.90;;;;;;5035074;28;20029;-72
2023/01/27 08:57:31;;;;;;;4.95;1.20;;;3.20;99.90;;;;;;5025588;28;20032;-72
2023/01/27 08:59:57;;;;;;;4.50;2.10;;;3.20;99.90;;;;;;5055262;28;20496;-72
2023/01/27 09:02:23;;;;;;;6.32;1.67;;;3.20;99.90;;;;;;5054973;28;20029;-72
2023/01/27 09:04:49;;;;;;;14.95;1.85;;;3.20;99.90;;;;;;5055206;28;20087;-72
2023/01/27 09:07:15;;;;;;;6.97;1.88;;;3.10;99.90;;;;;;5054974;28;20036;-72
2023/01/27 09:09:41;;;;;;;7.82;1.90;;;3.10;99.90;;;;;;5055151;28;20028;-72
2023/01/27 09:12:07;;;;;;;3.17;1.75;;;3.10;99.90;;;;;;5054924;28;20032;-72
2023/01/27 09:14:33;;;;;;;2.38;1.60;;;3.10;99.90;;;;;;5055555;28;20033;-72
2023/01/27 09:16:58;;;;;;;11.23;2.60;;;3.00;99.90;;;;;;5055548;28;20021;-72
2023/01/27 09:19:24;;;;;;;3.70;1.60;;;2.90;99.90;;;;;;5055714;28;20033;-72
2023/01/27 09:21:49;;;;;;;3.67;1.98;;;2.70;99.90;;;;;;5054837;28;20017;-72
2023/01/27 09:24:16;;;;;;;7.85;2.00;;;2.70;99.90;;;;;;5051556;28;20526;-73
2023/01/27 09:26:42;;;;;;;5.75;2.08;;;2.80;99.90;;;;;;5034680;28;20014;-72
2023/01/27 09:29:08;;;;;;;7.78;2.10;;;2.90;99.90;;;;;;5034599;28;20097;-72
2023/01/27 09:31:33;;;;;;;6.32;1.80;;;3.00;99.90;;;;;;5034529;28;20064;-72
2023/01/27 09:33:59;;;;;;;8.13;1.67;;;3.00;99.90;;;;;;5034398;28;20101;-72
2023/01/27 09:36:26;;;;;;;2.90;1.70;;;3.00;99.90;;;;;;5034600;28;20045;-73
2023/01/27 09:39:01;;;;;;;5.60;2.05;;;3.00;99.90;;;;;;5033203;28;20092;-73
2023/01/27 09:42:03;;;;;;;3.17;1.83;;;3.00;99.90;;;;;;5033881;28;20026;-72
2023/01/27 09:44:47;;;;;;;5.85;1.75;;;2.90;99.90;;;;;;5034424;28;20036;-73
2023/01/27 09:47:34;;;;;;;5.05;1.85;;;2.90;99.90;;;;;;5033973;28;20112;-72
2023/01/27 09:50:12;;;;;;;9.13;2.50;;;2.90;99.90;;;;;;5034244;28;20025;-73
2023/01/27 09:53:16;;;;;;;8.85;1.95;;;2.80;99.90;;;;;;5033963;28;20040;-72
2023/01/27 09:55:50;;;;;;;7.72;1.92;;;2.80;99.90;;;;;;5034418;28;20072;-73
2023/01/27 09:58:42;;;;;;;10.40;2.75;;;2.80;99.90;;;;;;5033671;28;20409;-73
2023/01/27 10:01:19;;;;;;;8.27;1.85;;;2.80;99.90;;;;;;5033860;28;20034;-73
2023/01/27 10:04:19;;;;;;;5.20;1.90;;;2.70;99.90;;;;;;5033547;28;20080;-73
2023/01/27 10:07:06;;;;;;;10.60;2.35;;;2.80;99.90;;;;;;5034259;28;20017;-74
2023/01/27 10:09:43;;;;;;;10.40;2.17;;;2.90;99.90;;;;;;5053792;28;20442;-73
2023/01/27 10:12:46;;;;;;;15.93;1.70;;;3.00;99.90;;;;;;5016303;28;20032;-70
2023/01/27 10:15:39;;;;;;;4.90;1.67;;;3.20;99.90;;;;;;5024704;28;20037;-73
2023/01/27 10:18:35;;;;;;;13.38;3.45;;;3.30;99.90;;;;;;5020528;28;20083;-73
2023/01/27 10:21:25;;;;;;;9.10;1.77;;;3.50;99.90;;;;;;5028490;28;20026;-73
2023/01/27 10:24:06;;;;;;;9.48;1.90;;;3.60;99.90;;;;;;5021204;28;20112;-72
2023/01/27 10:26:41;;;;;;;8.50;2.28;;;3.60;99.90;;;;;;5025792;28;20419;-72
2023/01/27 10:29:19;;;;;;;10.48;2.13;;;3.70;99.90;;;;;;5030503;28;20037;-73
2023/01/27 10:31:54;;;;;;;4.05;1.73;;;3.70;99.90;;;;;;5029486;28;20087;-73
2023/01/27 10:34:25;;;;;;;8.52;1.60;;;3.90;99.90;;;;;;5026263;28;20095;-73
2023/01/27 10:37:24;;;;;;;9.30;1.85;;;3.90;99.90;;;;;;5025371;28;20053;-73
2023/01/27 10:40:14;;;;;;;7.55;1.95;;;4.10;99.90;;;;;;5020342;28;20030;-73
2023/01/27 10:42:52;;;;;;;6.22;2.25;;;4.10;99.90;;;;;;5020733;28;20499;-73
2023/01/27 10:45:38;;;;;;;8.30;1.75;;;4.10;99.90;;;;;;5027864;28;20025;-72
2023/01/27 10:48:04;;;;;;;5.20;1.67;;;4.10;99.90;;;;;;5026151;28;20041;-73
2023/01/27 10:50:38;;;;;;;7.70;1.95;;;4.20;99.90;;;;;;5029598;28;20032;-73
2023/01/27 10:53:19;;;;;;;11.55;2.80;;;4.20;99.90;;;;;;5030442;28;20396;-72
2023/01/27 10:56:03;;;;;;;3.55;1.50;;;4.20;99.90;;;;;;5028215;28;20036;-72
2023/01/27 10:59:09;;;;;;;3.63;2.20;;;4.20;99.90;;;;;;5025423;28;20025;-73
2023/01/27 11:01:45;;;;;;;9.32;1.63;;;4.30;99.90;;;;;;5005682;28;20049;-73
2023/01/27 11:04:25;;;;;;;10.70;1.75;;;4.40;99.90;;;;;;5026451;28;20073;-73
2023/01/27 11:06:52;;;;;;;9.88;2.20;;;4.50;99.90;;;;;;5026446;28;20036;-73
2023/01/27 11:09:36;;;;;;;3.20;1.48;;;4.50;99.90;;;;;;5008603;28;20030;-73
2023/01/27 11:12:07;;;;;;;11.68;1.67;;;4.50;99.90;;;;;;5019716;28;20036;-73
2023/01/27 11:14:49;;;;;;;2.25;1.10;;;4.60;99.90;;;;;;5026433;28;20025;-73
2023/01/27 11:17:21;;;;;;;3.63;1.35;;;4.60;99.90;;;;;;5022865;28;20059;-73
2023/01/27 11:20:15;;;;;;;3.85;1.55;;;4.60;99.90;;;;;;5036093;28;20097;-73
2023/01/27 11:22:53;;;;;;;5.15;1.63;;;4.70;99.90;;;;;;5015353;28;20037;-73
2023/01/27 11:25:28;;;;;;;6.75;1.33;;;4.60;99.90;;;;;;5033849;28;20044;-73
2023/01/27 11:27:59;;;;;;;5.97;1.52;;;4.60;99.90;;;;;;5025345;28;20037;-72
2023/01/27 11:30:50;;;;;;;8.85;1.45;;;4.60;99.90;;;;;;5029670;28;20040;-72
2023/01/27 11:33:28;;;;;;;6.45;1.77;;;4.80;99.90;;;;;;5004385;28;20041;-72
2023/01/27 11:35:54;;;;;;;4.57;1.50;;;4.90;99.90;;;;;;5034258;28;20083;-72
2023/01/27 11:38:21;;;;;;;4.65;1.42;;;5.00;99.90;;;;;;5034278;28;20033;-73
2023/01/27 11:40:50;;;;;;;3.53;1.50;;;5.10;99.90;;;;;;5036466;28;20100;-73
2023/01/27 11:43:19;;;;;;;5.47;1.27;;;5.20;99.90;;;;;;5030917;28;20029;-73
2023/01/27 11:45:45;;;;;;;7.78;1.50;;;5.30;99.90;;;;;;5033193;28;20043;-73
2023/01/27 11:48:15;;;;;;;9.80;1.77;;;5.30;99.90;;;;;;5035094;28;20022;-73
2023/01/27 11:50:42;;;;;;;7.95;1.60;;;5.40;99.90;;;;;;5034232;28;20048;-73
2023/01/27 11:53:29;;;;;;;6.60;1.70;;;5.50;99.90;;;;;;5034701;28;20480;-73
2023/01/27 11:56:02;;;;;;;9.52;1.77;;;5.60;99.90;;;;;;5022425;28;20033;-73
2023/01/27 11:58:37;;;;;;;6.32;1.70;;;5.60;99.90;;;;;;5028023;28;20041;-72
2023/01/27 12:01:10;;;;;;;7.47;1.67;;;5.60;99.90;;;;;;5031443;28;20052;-72
2023/01/27 12:03:55;;;;;;;5.82;1.85;;;5.50;99.90;;;;;;5023860;28;20044;-72
2023/01/27 12:06:45;;;;;;;5.82;1.60;;;5.60;99.90;;;;;;5024228;28;20032;-72
2023/01/27 12:09:34;;;;;;;6.00;1.38;;;5.60;99.90;;;;;;5029225;28;20381;-72
2023/01/27 12:12:19;;;;;;;4.95;1.50;;;5.80;99.90;;;;;;5029671;28;20032;-72
2023/01/27 12:14:53;;;;;;;6.32;1.85;;;5.80;99.90;;;;;;5026374;28;20013;-72
2023/01/27 12:17:22;;;;;;;3.75;1.60;;;5.90;99.90;;;;;;5028529;28;20116;-72
2023/01/27 12:19:48;;;;;;;6.88;1.83;;;5.90;99.90;;;;;;5032783;28;20105;-72
2023/01/27 12:22:43;;;;;;;11.05;1.40;;;6.00;99.90;;;;;;5024995;28;20100;-72
2023/01/27 12:25:29;;;;;;;6.32;2.20;;;6.10;99.90;;;;;;5031499;28;20045;-72
2023/01/27 12:28:02;;;;;;;10.25;2.03;;;6.20;99.90;;;;;;5033246;28;20063;-71
2023/01/27 12:30:30;;;;;;;6.97;2.13;;;6.30;99.90;;;;;;5028436;28;20026;-72
2023/01/27 12:32:57;;;;;;;4.47;1.38;;;6.40;99.90;;;;;;5025416;28;20029;-72
2023/01/27 12:35:33;;;;;;;4.70;1.63;;;6.50;99.90;;;;;;5026458;28;20576;-72
2023/01/27 12:38:03;;;;;;;3.25;1.20;;;6.50;99.90;;;;;;5020099;28;20476;-72
2023/01/27 12:40:31;;;;;;;6.90;1.33;;;6.60;99.90;;;;;;5029676;28;20053;-72
2023/01/27 12:43:14;;;;;;;5.40;1.30;;;6.60;99.90;;;;;;5035230;28;20063;-72
2023/01/27 12:45:42;;;;;;;2.63;1.30;;;6.70;99.90;;;;;;5034888;28;20017;-72
2023/01/27 12:48:17;;;;;;;9.27;1.42;;;6.70;99.90;;;;;;5029286;28;20029;-71
2023/01/27 12:50:48;;;;;;;5.72;1.58;;;6.80;99.90;;;;;;5026401;28;20040;-72
2023/01/27 12:53:16;;;;;;;4.70;1.75;;;6.80;99.90;;;;;;5025907;28;20046;-72
2023/01/27 12:56:08;;;;;;;4.82;1.35;;;6.80;99.90;;;;;;5033262;28;20029;-71
2023/01/27 12:58:38;;;;;;;3.78;1.20;;;6.70;99.90;;;;;;5031364;28;20037;-72
2023/01/27 13:01:32;;;;;;;5.53;2.25;;;6.80;99.90;;;;;;5031019;28;20029;-72
2023/01/27 13:04:02;;;;;;;6.38;1.52;;;6.80;99.90;;;;;;5014352;28;20522;-72
2023/01/27 13:06:42;;;;;;;5.07;1.20;;;6.90;99.90;;;;;;5033425;28;20070;-73
2023/01/27 13:09:48;;;;;;;6.60;1.25;;;7.00;99.90;;;;;;5031841;28;20025;-72
2023/01/27 13:12:16;;;;;;;3.00;1.60;;;7.10;99.90;;;;;;5011173;28;20117;-74
2023/01/27 13:14:42;;;;;;;5.65;1.38;;;7.30;99.90;;;;;;5028737;28;20493;-72
2023/01/27 13:17:26;;;;;;;1.98;1.00;;;7.50;99.90;;;;;;5030826;28;20033;-72
2023/01/27 13:19:53;;;;;;;4.38;1.23;;;7.60;99.90;;;;;;5029077;28;20088;-72
2023/01/27 13:22:22;;;;;;;4.65;1.40;;;7.70;99.90;;;;;;5031733;28;20045;-72
2023/01/27 13:24:53;;;;;;;8.90;1.05;;;7.90;99.90;;;;;;5031902;28;20427;-72
2023/01/27 13:27:21;;;;;;;5.35;1.42;;;8.10;99.90;;;;;;5031520;28;20038;-72
2023/01/27 13:29:58;;;;;;;2.47;1.05;;;8.20;99.90;;;;;;5030476;28;20034;-71
2023/01/27 13:32:28;;;;;;;9.00;1.80;;;8.40;99.90;;;;;;5024427;28;20141;-72
2023/01/27 13:34:57;;;;;;;4.03;1.35;;;8.20;99.90;;;;;;5029542;28;20052;-72
2023/01/27 13:37:50;;;;;;;9.13;1.73;;;8.10;99.90;;;;;;5025391;28;20029;-72
2023/01/27 13:40:22;;;;;;;2.78;1.30;;;7.80;99.90;;;;;;5030803;28;20022;-72
2023/01/27 13:43:11;;;;;;;5.50;1.20;;;7.30;99.90;;;;;;5025984;28;20490;-72